createdAt,value
2022-10-01T00:00:29.615Z,38.4
2022-10-01T00:01:32.163Z,38.4
2022-10-01T00:02:35.454Z,38.4
2022-10-01T00:03:37.255Z,38.5
2022-10-01T00:04:38.857Z,38.4
2022-10-01T00:05:40.784Z,38.4
2022-10-01T00:06:42.324Z,38.4
2022-10-01T00:07:43.883Z,38.4
2022-10-01T00:08:45.549Z,38.4
2022-10-01T00:09:47.296Z,38.4
2022-10-01T00:10:48.932Z,38.4
2022-10-01T00:11:50.505Z,38.4
2022-10-01T00:12:52.102Z,38.4
2022-10-01T00:13:53.845Z,38.4
2022-10-01T00:14:55.517Z,38.4
2022-10-01T00:15:57.231Z,38.4
2022-10-01T00:16:58.970Z,38.4
2022-10-01T00:18:01.160Z,38.4
2022-10-01T00:19:02.959Z,38.4
2022-10-01T00:20:14.797Z,38.4
2022-10-01T00:21:16.533Z,38.4
2022-10-01T00:22:18.180Z,38.4
2022-10-01T00:23:19.840Z,38.4
2022-10-01T00:24:21.449Z,38.4
2022-10-01T00:25:23.031Z,38.4
2022-10-01T00:26:24.574Z,38.4
2022-10-01T00:27:26.136Z,38.4
2022-10-01T00:28:28.010Z,38.4
2022-10-01T00:29:29.979Z,38.4
2022-10-01T00:30:31.810Z,38.4
2022-10-01T00:31:34.369Z,38.4
2022-10-01T00:32:37.352Z,38.4
2022-10-01T00:33:39.097Z,38.4
2022-10-01T00:34:40.908Z,38.4
2022-10-01T00:35:42.437Z,38.4
2022-10-01T00:36:44.098Z,38.3
2022-10-01T00:37:45.740Z,38.3
2022-10-01T00:38:47.276Z,38.4
2022-10-01T00:39:48.828Z,38.4
2022-10-01T00:40:50.476Z,38.4
2022-10-01T00:41:51.991Z,38.4
2022-10-01T00:42:53.799Z,38.4
2022-10-01T00:43:55.534Z,38.4
2022-10-01T00:44:57.152Z,38.4
2022-10-01T00:45:58.892Z,38.4
2022-10-01T00:47:01.001Z,38.4
2022-10-01T00:48:02.705Z,38.4
2022-10-01T00:49:04.452Z,38.4
2022-10-01T00:50:05.995Z,38.4
2022-10-01T00:51:07.542Z,38.4
2022-10-01T00:52:09.071Z,38.4
2022-10-01T00:53:10.726Z,38.4
2022-10-01T00:54:12.372Z,38.4
2022-10-01T00:55:14.020Z,38.3
2022-10-01T00:56:15.662Z,38.4
2022-10-01T00:57:17.283Z,38.4
2022-10-01T00:58:18.962Z,38.3
2022-10-01T00:59:21.106Z,38.3
2022-10-01T01:00:22.755Z,38.3
2022-10-01T01:01:24.588Z,38.3
2022-10-01T01:02:26.845Z,38.3
2022-10-01T01:03:28.825Z,38.3
2022-10-01T01:04:30.527Z,38.3
2022-10-01T01:05:32.209Z,38.4
2022-10-01T01:06:33.737Z,38.3
2022-10-01T01:07:35.307Z,38.4
2022-10-01T01:08:36.877Z,38.4
2022-10-01T01:09:38.481Z,38.4
2022-10-01T01:10:40.236Z,38.4
2022-10-01T01:11:41.874Z,38.4
2022-10-01T01:12:43.411Z,38.4
2022-10-01T01:13:44.978Z,38.3
2022-10-01T01:14:46.558Z,38.3
2022-10-01T01:15:51.355Z,38.4
2022-10-01T01:16:53.225Z,38.4
2022-10-01T01:17:54.919Z,38.4
2022-10-01T01:18:56.565Z,38.4
2022-10-01T01:19:58.284Z,38.4
2022-10-01T01:20:59.919Z,38.4
2022-10-01T01:22:01.564Z,38.4
2022-10-01T01:23:04.374Z,38.4
2022-10-01T01:24:06.023Z,38.4
2022-10-01T01:25:07.676Z,38.4
2022-10-01T01:26:09.271Z,38.3
2022-10-01T01:27:10.959Z,38.3
2022-10-01T01:28:12.647Z,38.4
2022-10-01T01:29:14.650Z,38.4
2022-10-01T01:30:16.375Z,38.4
2022-10-01T01:31:18.301Z,38.4
2022-10-01T01:32:20.208Z,38.4
2022-10-01T01:33:21.860Z,38.4
2022-10-01T01:34:23.400Z,38.4
2022-10-01T01:35:25.062Z,38.4
2022-10-01T01:36:26.705Z,38.4
2022-10-01T01:37:28.538Z,38.4
2022-10-01T01:38:30.118Z,38.4
2022-10-01T01:39:31.666Z,38.4
2022-10-01T01:40:33.369Z,38.4
2022-10-01T01:41:35.953Z,38.4
2022-10-01T01:42:38.504Z,38.4
2022-10-01T01:43:40.078Z,38.4
2022-10-01T01:44:41.754Z,38.4
2022-10-01T01:45:43.496Z,38.4
2022-10-01T01:46:45.432Z,38.4
2022-10-01T01:47:47.146Z,38.4
2022-10-01T01:48:48.673Z,38.4
2022-10-01T01:49:50.224Z,38.4
2022-10-01T01:50:51.976Z,38.4
2022-10-01T01:51:53.725Z,38.4
2022-10-01T01:52:55.377Z,38.4
2022-10-01T01:53:57.219Z,38.4
2022-10-01T01:54:58.860Z,38.4
2022-10-01T01:56:00.610Z,38.4
2022-10-01T01:57:02.140Z,38.4
2022-10-01T01:58:03.799Z,38.4
2022-10-01T01:59:05.549Z,38.4
2022-10-01T02:00:07.176Z,38.4
2022-10-01T02:01:08.971Z,38.4
2022-10-01T02:02:11.096Z,38.4
2022-10-01T02:03:13.290Z,38.4
2022-10-01T02:04:14.856Z,38.4
2022-10-01T02:05:16.503Z,38.4
2022-10-01T02:06:18.496Z,38.4
2022-10-01T02:07:20.651Z,38.4
2022-10-01T02:08:22.246Z,38.4
2022-10-01T02:09:24.046Z,38.4
2022-10-01T02:10:25.649Z,38.4
2022-10-01T02:11:27.332Z,38.4
2022-10-01T02:12:28.858Z,38.4
2022-10-01T02:13:30.531Z,38.4
2022-10-01T02:14:32.474Z,38.4
2022-10-01T02:15:34.196Z,38.4
2022-10-01T02:16:36.123Z,38.4
2022-10-01T02:17:37.653Z,38.4
2022-10-01T02:18:39.300Z,38.4
2022-10-01T02:19:40.907Z,38.4
2022-10-01T02:20:42.653Z,38.4
2022-10-01T02:21:44.401Z,38.4
2022-10-01T02:22:45.912Z,38.4
2022-10-01T02:23:47.590Z,38.4
2022-10-01T02:24:49.235Z,38.4
2022-10-01T02:25:50.770Z,38.4
2022-10-01T02:26:52.312Z,38.4
2022-10-01T02:27:54.097Z,38.4
2022-10-01T02:28:56.021Z,38.4
2022-10-01T02:29:57.670Z,38.4
2022-10-01T02:30:59.506Z,38.4
2022-10-01T02:32:01.608Z,38.4
2022-10-01T02:33:03.252Z,38.4
2022-10-01T02:34:09.768Z,38.4
2022-10-01T02:35:16.219Z,38.4
2022-10-01T02:36:17.858Z,38.4
2022-10-01T02:37:19.617Z,38.4
2022-10-01T02:38:21.154Z,38.4
2022-10-01T02:39:22.817Z,38.4
2022-10-01T02:40:24.562Z,38.4
2022-10-01T02:41:26.086Z,38.4
2022-10-01T02:42:27.712Z,38.4
2022-10-01T02:43:29.409Z,38.4
2022-10-01T02:44:31.245Z,38.4
2022-10-01T02:45:33.033Z,38.4
2022-10-01T02:46:35.172Z,38.4
2022-10-01T02:47:37.001Z,38.4
2022-10-01T02:48:38.645Z,38.4
2022-10-01T02:49:40.192Z,38.4
2022-10-01T02:50:41.830Z,38.5
2022-10-01T02:51:43.477Z,38.4
2022-10-01T02:52:45.225Z,38.4
2022-10-01T02:53:46.839Z,38.4
2022-10-01T02:54:48.380Z,38.4
2022-10-01T02:55:49.915Z,38.4
2022-10-01T02:56:56.301Z,38.4
2022-10-01T02:57:58.059Z,38.4
2022-10-01T02:58:59.616Z,38.4
2022-10-01T03:00:01.249Z,38.4
2022-10-01T03:01:02.785Z,38.4
2022-10-01T03:02:04.645Z,38.4
2022-10-01T03:03:06.717Z,38.4
2022-10-01T03:04:08.240Z,38.4
2022-10-01T03:05:09.752Z,38.4
2022-10-01T03:06:11.427Z,38.4
2022-10-01T03:07:13.071Z,38.4
2022-10-01T03:08:14.647Z,38.4
2022-10-01T03:09:16.188Z,38.4
2022-10-01T03:10:17.908Z,38.5
2022-10-01T03:11:19.522Z,38.5
2022-10-01T03:12:21.054Z,38.5
2022-10-01T03:13:22.739Z,38.5
2022-10-01T03:14:24.350Z,38.5
2022-10-01T03:15:25.928Z,38.5
2022-10-01T03:16:27.635Z,38.5
2022-10-01T03:17:29.627Z,38.5
2022-10-01T03:18:31.372Z,38.4
2022-10-01T03:19:32.901Z,38.4
2022-10-01T03:20:34.444Z,38.5
2022-10-01T03:21:36.828Z,38.4
2022-10-01T03:22:38.619Z,38.4
2022-10-01T03:23:40.391Z,38.4
2022-10-01T03:24:42.165Z,38.5
2022-10-01T03:25:43.813Z,38.4
2022-10-01T03:26:45.737Z,38.5
2022-10-01T03:27:47.457Z,38.4
2022-10-01T03:28:49.408Z,38.5
2022-10-01T03:29:51.108Z,38.5
2022-10-01T03:30:52.754Z,38.5
2022-10-01T03:31:54.579Z,38.5
2022-10-01T03:32:56.515Z,38.5
2022-10-01T03:33:58.059Z,38.5
2022-10-01T03:34:59.644Z,38.5
2022-10-01T03:36:01.186Z,38.5
2022-10-01T03:37:05.666Z,38.5
2022-10-01T03:38:07.400Z,38.4
2022-10-01T03:39:12.121Z,38.5
2022-10-01T03:40:13.859Z,38.5
2022-10-01T03:41:15.581Z,38.4
2022-10-01T03:42:17.170Z,38.5
2022-10-01T03:43:18.707Z,38.5
2022-10-01T03:44:20.268Z,38.5
2022-10-01T03:45:22.172Z,38.5
2022-10-01T03:46:24.189Z,38.5
2022-10-01T03:47:25.736Z,38.5
2022-10-01T03:48:27.308Z,38.6
2022-10-01T03:49:28.929Z,38.5
2022-10-01T03:50:30.678Z,38.5
2022-10-01T03:51:33.144Z,38.5
2022-10-01T03:52:35.748Z,38.5
2022-10-01T03:53:37.354Z,38.4
2022-10-01T03:54:39.085Z,38.4
2022-10-01T03:55:40.847Z,38.4
2022-10-01T03:56:42.376Z,38.5
2022-10-01T03:57:44.077Z,38.5
2022-10-01T03:58:45.624Z,38.5
2022-10-01T03:59:47.292Z,38.5
2022-10-01T04:00:48.963Z,38.5
2022-10-01T04:01:50.974Z,38.5
2022-10-01T04:02:53.583Z,38.5
2022-10-01T04:03:55.666Z,38.5
2022-10-01T04:04:57.270Z,38.5
2022-10-01T04:05:58.931Z,38.5
2022-10-01T04:07:00.681Z,38.6
2022-10-01T04:08:02.254Z,38.5
2022-10-01T04:09:03.789Z,38.5
2022-10-01T04:10:05.615Z,38.5
2022-10-01T04:11:07.258Z,38.5
2022-10-01T04:12:09.013Z,38.6
2022-10-01T04:13:10.654Z,38.6
2022-10-01T04:14:12.296Z,38.6
2022-10-01T04:15:13.841Z,38.6
2022-10-01T04:16:15.688Z,38.6
2022-10-01T04:17:17.643Z,38.6
2022-10-01T04:18:19.255Z,38.6
2022-10-01T04:19:20.815Z,38.6
2022-10-01T04:20:22.463Z,38.6
2022-10-01T04:21:24.438Z,38.6
2022-10-01T04:22:26.050Z,38.7
2022-10-01T04:23:27.820Z,38.7
2022-10-01T04:24:29.487Z,38.7
2022-10-01T04:25:31.316Z,38.7
2022-10-01T04:26:33.006Z,38.7
2022-10-01T04:27:34.547Z,38.7
2022-10-01T04:28:36.150Z,38.7
2022-10-01T04:29:40.576Z,38.7
2022-10-01T04:30:42.314Z,38.7
2022-10-01T04:31:43.980Z,38.7
2022-10-01T04:32:45.906Z,38.7
2022-10-01T04:33:47.439Z,38.7
2022-10-01T04:34:49.043Z,38.7
2022-10-01T04:35:50.621Z,38.7
2022-10-01T04:36:52.249Z,38.7
2022-10-01T04:37:53.968Z,38.8
2022-10-01T04:39:02.667Z,38.7
2022-10-01T04:40:04.795Z,38.7
2022-10-01T04:41:06.481Z,38.7
2022-10-01T04:42:08.091Z,38.7
2022-10-01T04:43:09.744Z,38.8
2022-10-01T04:44:11.381Z,38.8
2022-10-01T04:45:12.889Z,38.8
2022-10-01T04:46:14.831Z,38.7
2022-10-01T04:47:16.826Z,38.8
2022-10-01T04:48:18.469Z,38.8
2022-10-01T04:49:20.112Z,38.8
2022-10-01T04:50:21.766Z,38.8
2022-10-01T04:51:23.378Z,38.8
2022-10-01T04:52:25.153Z,38.8
2022-10-01T04:53:26.801Z,38.8
2022-10-01T04:54:28.562Z,38.8
2022-10-01T04:55:30.190Z,38.7
2022-10-01T04:56:31.876Z,38.7
2022-10-01T04:57:33.584Z,38.7
2022-10-01T04:58:35.111Z,38.7
2022-10-01T04:59:36.645Z,38.7
2022-10-01T05:00:38.465Z,38.7
2022-10-01T05:01:40.734Z,38.6
2022-10-01T05:02:42.852Z,38.6
2022-10-01T05:03:44.453Z,38.6
2022-10-01T05:04:45.951Z,38.5
2022-10-01T05:05:47.689Z,38.5
2022-10-01T05:06:52.285Z,38.5
2022-10-01T05:07:53.855Z,38.5
2022-10-01T05:08:55.393Z,38.5
2022-10-01T05:09:56.994Z,38.5
2022-10-01T05:10:58.539Z,38.5
2022-10-01T05:12:00.407Z,38.5
2022-10-01T05:13:02.031Z,38.5
2022-10-01T05:14:03.797Z,38.5
2022-10-01T05:15:05.480Z,38.4
2022-10-01T05:16:07.327Z,38.4
2022-10-01T05:17:09.348Z,38.4
2022-10-01T05:18:10.879Z,38.3
2022-10-01T05:19:12.535Z,38.3
2022-10-01T05:20:14.185Z,38.3
2022-10-01T05:21:15.849Z,38.3
2022-10-01T05:22:17.429Z,38.3
2022-10-01T05:23:18.980Z,38.3
2022-10-01T05:24:20.624Z,38.3
2022-10-01T05:25:22.304Z,38.3
2022-10-01T05:26:23.857Z,38.3
2022-10-01T05:27:25.596Z,38.3
2022-10-01T05:28:27.256Z,38.3
2022-10-01T05:29:29.130Z,38.3
2022-10-01T05:30:30.838Z,38.3
2022-10-01T05:31:33.528Z,38.3
2022-10-01T05:32:36.628Z,38.3
2022-10-01T05:33:38.165Z,38.3
2022-10-01T05:34:39.721Z,38.3
2022-10-01T05:35:41.423Z,38.3
2022-10-01T05:36:43.165Z,38.3
2022-10-01T05:37:44.789Z,38.4
2022-10-01T05:38:46.335Z,38.3
2022-10-01T05:39:48.006Z,38.3
2022-10-01T05:40:49.758Z,38.3
2022-10-01T05:41:51.437Z,38.3
2022-10-01T05:42:53.342Z,38.3
2022-10-01T05:43:54.953Z,38.3
2022-10-01T05:44:56.634Z,38.3
2022-10-01T05:45:58.318Z,38.3
2022-10-01T05:47:00.041Z,38.3
2022-10-01T05:48:01.657Z,38.3
2022-10-01T05:49:03.458Z,38.3
2022-10-01T05:50:05.271Z,38.3
2022-10-01T05:51:06.916Z,38.3
2022-10-01T05:52:08.592Z,38.3
2022-10-01T05:53:10.191Z,38.3
2022-10-01T05:54:11.731Z,38.3
2022-10-01T05:55:13.275Z,38.3
2022-10-01T05:56:14.946Z,38.3
2022-10-01T05:57:16.486Z,38.3
2022-10-01T05:58:18.292Z,38.3
2022-10-01T05:59:19.895Z,38.3
2022-10-01T06:00:21.562Z,38.3
2022-10-01T06:01:23.174Z,38.3
2022-10-01T06:02:28.126Z,38.2
2022-10-01T06:03:30.455Z,38.2
2022-10-01T06:04:32.090Z,38.2
2022-10-01T06:05:33.744Z,38.2
2022-10-01T06:06:35.434Z,38.2
2022-10-01T06:07:37.004Z,38.2
2022-10-01T06:08:38.674Z,38.2
2022-10-01T06:09:40.522Z,38.2
2022-10-01T06:10:42.168Z,38.2
2022-10-01T06:11:43.784Z,38.3
2022-10-01T06:12:45.360Z,38.3
2022-10-01T06:13:47.103Z,38.3
2022-10-01T06:14:48.750Z,38.3
2022-10-01T06:15:50.396Z,38.3
2022-10-01T06:16:52.188Z,38.3
2022-10-01T06:17:53.901Z,38.2
2022-10-01T06:18:55.639Z,38.2
2022-10-01T06:19:57.263Z,38.2
2022-10-01T06:20:58.873Z,38.2
2022-10-01T06:22:00.575Z,38.3
2022-10-01T06:23:02.245Z,38.3
2022-10-01T06:24:03.969Z,38.3
2022-10-01T06:25:05.622Z,38.3
2022-10-01T06:26:07.471Z,38.3
2022-10-01T06:27:09.093Z,38.3
2022-10-01T06:28:10.824Z,38.3
2022-10-01T06:29:12.885Z,38.2
2022-10-01T06:30:14.460Z,38.2
2022-10-01T06:31:16.452Z,38.2
2022-10-01T06:32:18.193Z,38.1
2022-10-01T06:33:20.107Z,38.1
2022-10-01T06:34:22.123Z,38
2022-10-01T06:35:26.305Z,38
2022-10-01T06:36:28.119Z,38
2022-10-01T06:37:29.670Z,38
2022-10-01T06:38:31.454Z,38
2022-10-01T06:39:33.122Z,38
2022-10-01T06:40:34.659Z,38
2022-10-01T06:41:36.861Z,37.9
2022-10-01T06:42:39.210Z,37.9
2022-10-01T06:43:40.746Z,37.9
2022-10-01T06:44:42.437Z,37.8
2022-10-01T06:45:44.208Z,37.8
2022-10-01T06:46:46.201Z,37.8
2022-10-01T06:47:47.744Z,37.7
2022-10-01T06:48:49.394Z,37.7
2022-10-01T06:49:51.146Z,37.7
2022-10-01T06:50:52.893Z,37.6
2022-10-01T06:51:54.839Z,37.5
2022-10-01T06:52:56.343Z,37.5
2022-10-01T06:53:57.947Z,37.5
2022-10-01T06:54:59.558Z,37.5
2022-10-01T06:56:01.219Z,37.4
2022-10-01T06:57:02.745Z,37.4
2022-10-01T06:58:04.314Z,37.3
2022-10-01T06:59:06.147Z,37.3
2022-10-01T07:00:07.841Z,37.3
2022-10-01T07:01:09.670Z,37.2
2022-10-01T07:02:11.820Z,37.2
2022-10-01T07:03:13.699Z,37.2
2022-10-01T07:04:15.282Z,37.2
2022-10-01T07:05:17.055Z,37.2
2022-10-01T07:06:18.661Z,37.2
2022-10-01T07:07:20.389Z,37.2
2022-10-01T07:08:22.051Z,37.2
2022-10-01T07:09:23.762Z,37.2
2022-10-01T07:10:25.576Z,37.2
2022-10-01T07:11:27.230Z,37.3
2022-10-01T07:12:28.742Z,37.2
2022-10-01T07:13:30.292Z,37.2
2022-10-01T07:14:31.840Z,37.2
2022-10-01T07:15:33.702Z,37.2
2022-10-01T07:16:35.494Z,37.2
2022-10-01T07:17:37.401Z,37.2
2022-10-01T07:18:38.932Z,37.1
2022-10-01T07:19:40.568Z,37.1
2022-10-01T07:20:42.424Z,37.1
2022-10-01T07:21:43.964Z,37.1
2022-10-01T07:22:45.630Z,37.1
2022-10-01T07:23:47.161Z,37.1
2022-10-01T07:24:48.721Z,37.1
2022-10-01T07:25:50.789Z,37.1
2022-10-01T07:26:52.456Z,37
2022-10-01T07:27:54.291Z,37
2022-10-01T07:28:56.053Z,37
2022-10-01T07:29:57.604Z,37
2022-10-01T07:30:59.510Z,37
2022-10-01T07:32:01.273Z,37
2022-10-01T07:33:03.150Z,37
2022-10-01T07:34:04.683Z,37
2022-10-01T07:35:06.393Z,37
2022-10-01T07:36:08.357Z,37
2022-10-01T07:37:10.209Z,36.9
2022-10-01T07:38:12.029Z,36.9
2022-10-01T07:39:13.699Z,36.9
2022-10-01T07:40:15.564Z,36.9
2022-10-01T07:41:17.171Z,36.9
2022-10-01T07:42:18.800Z,36.9
2022-10-01T07:43:20.338Z,36.8
2022-10-01T07:44:21.880Z,36.8
2022-10-01T07:45:23.566Z,36.8
2022-10-01T07:46:25.247Z,36.8
2022-10-01T07:47:26.851Z,36.8
2022-10-01T07:48:28.395Z,36.8
2022-10-01T07:49:30.040Z,36.8
2022-10-01T07:50:31.585Z,36.8
2022-10-01T07:51:33.754Z,36.8
2022-10-01T07:52:36.512Z,36.7
2022-10-01T07:53:38.158Z,36.7
2022-10-01T07:54:39.692Z,36.7
2022-10-01T07:55:41.258Z,36.7
2022-10-01T07:56:43.097Z,36.7
2022-10-01T07:57:44.642Z,36.7
2022-10-01T07:58:46.283Z,36.7
2022-10-01T07:59:55.626Z,36.7
2022-10-01T08:00:57.983Z,36.7
2022-10-01T08:02:00.564Z,36.7
2022-10-01T08:03:02.495Z,36.7
2022-10-01T08:04:04.206Z,36.7
2022-10-01T08:05:05.780Z,36.7
2022-10-01T08:06:07.432Z,36.7
2022-10-01T08:07:09.069Z,36.7
2022-10-01T08:08:10.692Z,36.7
2022-10-01T08:09:12.364Z,36.7
2022-10-01T08:10:14.012Z,36.8
2022-10-01T08:11:15.662Z,36.8
2022-10-01T08:12:17.399Z,36.8
2022-10-01T08:13:19.043Z,36.8
2022-10-01T08:14:20.630Z,36.8
2022-10-01T08:15:22.232Z,36.8
2022-10-01T08:16:24.014Z,36.8
2022-10-01T08:17:29.774Z,36.8
2022-10-01T08:18:31.465Z,36.8
2022-10-01T08:19:33.008Z,36.8
2022-10-01T08:20:34.633Z,36.8
2022-10-01T08:21:37.058Z,36.8
2022-10-01T08:22:42.630Z,36.8
2022-10-01T08:23:44.249Z,36.8
2022-10-01T08:24:45.950Z,36.8
2022-10-01T08:25:47.704Z,36.9
2022-10-01T08:26:49.478Z,36.9
2022-10-01T08:27:51.306Z,36.9
2022-10-01T08:28:53.078Z,36.9
2022-10-01T08:29:54.687Z,37
2022-10-01T08:30:56.210Z,37
2022-10-01T08:31:57.865Z,37
2022-10-01T08:33:00.028Z,37
2022-10-01T08:34:01.780Z,37
2022-10-01T08:35:03.321Z,37
2022-10-01T08:36:04.857Z,37.1
2022-10-01T08:37:06.399Z,37.1
2022-10-01T08:38:08.054Z,37.1
2022-10-01T08:39:09.733Z,37.1
2022-10-01T08:40:11.339Z,37.1
2022-10-01T08:41:12.986Z,37.1
2022-10-01T08:42:14.671Z,37.1
2022-10-01T08:43:16.379Z,37.1
2022-10-01T08:44:17.984Z,37.1
2022-10-01T08:45:19.635Z,37.1
2022-10-01T08:46:21.424Z,37.2
2022-10-01T08:47:23.021Z,37.2
2022-10-01T08:48:24.810Z,37.2
2022-10-01T08:49:26.351Z,37.2
2022-10-01T08:50:27.962Z,37.2
2022-10-01T08:51:29.607Z,37.2
2022-10-01T08:52:31.195Z,37.2
2022-10-01T08:53:32.829Z,37.2
2022-10-01T08:54:34.481Z,37.3
2022-10-01T08:55:36.247Z,37.3
2022-10-01T08:56:38.121Z,37.3
2022-10-01T08:57:39.705Z,37.3
2022-10-01T08:58:41.446Z,37.3
2022-10-01T08:59:43.222Z,37.4
2022-10-01T09:00:45.030Z,37.4
2022-10-01T09:01:46.963Z,37.4
2022-10-01T09:02:48.493Z,37.4
2022-10-01T09:03:50.417Z,37.4
2022-10-01T09:04:52.385Z,37.5
2022-10-01T09:05:54.354Z,37.5
2022-10-01T09:06:55.878Z,37.5
2022-10-01T09:07:57.412Z,37.5
2022-10-01T09:08:59.043Z,37.5
2022-10-01T09:10:00.667Z,37.6
2022-10-01T09:11:02.340Z,37.6
2022-10-01T09:12:04.084Z,37.6
2022-10-01T09:13:05.817Z,37.6
2022-10-01T09:14:07.682Z,37.7
2022-10-01T09:15:09.365Z,37.7
2022-10-01T09:16:11.568Z,37.7
2022-10-01T09:17:13.540Z,37.7
2022-10-01T09:18:15.084Z,37.8
2022-10-01T09:19:16.775Z,37.8
2022-10-01T09:20:18.625Z,37.8
2022-10-01T09:21:20.677Z,37.8
2022-10-01T09:22:22.376Z,37.8
2022-10-01T09:23:23.948Z,37.8
2022-10-01T09:24:25.533Z,37.8
2022-10-01T09:25:27.087Z,37.9
2022-10-01T09:26:28.866Z,37.9
2022-10-01T09:27:30.511Z,37.9
2022-10-01T09:28:32.430Z,37.9
2022-10-01T09:29:34.413Z,37.8
2022-10-01T09:30:36.021Z,37.9
2022-10-01T09:31:38.623Z,37.8
2022-10-01T09:32:40.818Z,37.9
2022-10-01T09:33:42.421Z,37.8
2022-10-01T09:34:44.128Z,37.8
2022-10-01T09:35:45.813Z,37.9
2022-10-01T09:36:47.463Z,38
2022-10-01T09:37:49.114Z,37.9
2022-10-01T09:38:50.860Z,37.9
2022-10-01T09:39:52.607Z,37.9
2022-10-01T09:40:54.227Z,37.9
2022-10-01T09:41:55.893Z,38
2022-10-01T09:42:57.537Z,38
2022-10-01T09:43:59.235Z,38
2022-10-01T09:45:00.928Z,38
2022-10-01T09:46:02.693Z,37.9
2022-10-01T09:47:04.567Z,37.9
2022-10-01T09:48:06.122Z,37.9
2022-10-01T09:49:07.655Z,38
2022-10-01T09:50:09.584Z,38
2022-10-01T09:51:11.312Z,38.1
2022-10-01T09:52:12.965Z,38.1
2022-10-01T09:53:14.494Z,38.1
2022-10-01T09:54:16.035Z,38.1
2022-10-01T09:55:17.655Z,38.1
2022-10-01T09:56:22.043Z,38.1
2022-10-01T09:57:23.842Z,38.1
2022-10-01T09:58:25.364Z,38.1
2022-10-01T09:59:27.036Z,38.1
2022-10-01T10:00:28.686Z,38.1
2022-10-01T10:01:30.322Z,38.1
2022-10-01T10:02:32.197Z,38.1
2022-10-01T10:03:34.638Z,38
2022-10-01T10:04:36.799Z,38.1
2022-10-01T10:05:38.512Z,38.1
2022-10-01T10:06:40.099Z,38.1
2022-10-01T10:07:41.699Z,38.1
2022-10-01T10:08:43.241Z,38.2
2022-10-01T10:09:45.020Z,38.2
2022-10-01T10:10:46.706Z,38.3
2022-10-01T10:11:48.242Z,38.2
2022-10-01T10:12:49.855Z,38.3
2022-10-01T10:13:51.499Z,38.3
2022-10-01T10:14:53.079Z,38.3
2022-10-01T10:15:55.070Z,38.3
2022-10-01T10:16:56.987Z,38.3
2022-10-01T10:17:58.640Z,38.3
2022-10-01T10:19:00.240Z,38.3
2022-10-01T10:20:01.802Z,38.2
2022-10-01T10:21:03.610Z,38.2
2022-10-01T10:22:05.379Z,38.2
2022-10-01T10:23:07.037Z,38.2
2022-10-01T10:24:08.654Z,38.2
2022-10-01T10:25:10.214Z,38.2
2022-10-01T10:26:11.761Z,38.1
2022-10-01T10:27:13.402Z,38.2
2022-10-01T10:28:15.184Z,38.2
2022-10-01T10:29:16.950Z,38.2
2022-10-01T10:30:18.561Z,38.2
2022-10-01T10:31:20.357Z,38.2
2022-10-01T10:32:22.341Z,38.1
2022-10-01T10:33:23.878Z,38.1
2022-10-01T10:34:25.531Z,38.3
2022-10-01T10:35:27.118Z,38.3
2022-10-01T10:36:28.923Z,38.3
2022-10-01T10:37:30.671Z,38.3
2022-10-01T10:38:32.257Z,38.4
2022-10-01T10:39:34.066Z,38.4
2022-10-01T10:40:35.714Z,38.3
2022-10-01T10:41:38.443Z,38.3
2022-10-01T10:42:40.435Z,38.4
2022-10-01T10:43:42.088Z,38.3
2022-10-01T10:44:43.723Z,38.3
2022-10-01T10:45:45.406Z,38.3
2022-10-01T10:46:47.312Z,38.3
2022-10-01T10:47:49.526Z,38.3
2022-10-01T10:48:51.088Z,38.3
2022-10-01T10:49:52.871Z,38.3
2022-10-01T10:50:54.517Z,38.3
2022-10-01T10:51:56.272Z,38.3
2022-10-01T10:52:58.016Z,38.4
2022-10-01T10:53:59.549Z,38.4
2022-10-01T10:55:01.208Z,38.4
2022-10-01T10:56:02.855Z,38.4
2022-10-01T10:57:04.599Z,38.4
2022-10-01T10:58:06.246Z,38.5
2022-10-01T10:59:07.885Z,38.5
2022-10-01T11:00:09.535Z,38.6
2022-10-01T11:01:11.207Z,38.6
2022-10-01T11:02:13.271Z,38.6
2022-10-01T11:03:15.011Z,38.6
2022-10-01T11:04:16.554Z,38.6
2022-10-01T11:05:18.344Z,38.6
2022-10-01T11:06:20.170Z,38.7
2022-10-01T11:07:22.007Z,38.7
2022-10-01T11:08:23.712Z,38.6
2022-10-01T11:09:25.223Z,38.7
2022-10-01T11:10:26.758Z,38.6
2022-10-01T11:11:28.485Z,38.6
2022-10-01T11:12:30.021Z,38.6
2022-10-01T11:13:31.743Z,38.6
2022-10-01T11:14:33.383Z,38.6
2022-10-01T11:15:35.052Z,38.7
2022-10-01T11:16:38.016Z,38.7
2022-10-01T11:17:39.852Z,38.7
2022-10-01T11:18:41.478Z,38.7
2022-10-01T11:19:43.014Z,38.7
2022-10-01T11:20:44.577Z,38.6
2022-10-01T11:21:46.205Z,38.6
2022-10-01T11:22:48.090Z,38.6
2022-10-01T11:23:49.754Z,38.5
2022-10-01T11:24:51.344Z,38.5
2022-10-01T11:25:52.922Z,38.5
2022-10-01T11:26:54.538Z,38.5
2022-10-01T11:27:56.335Z,38.5
2022-10-01T11:28:58.092Z,38.6
2022-10-01T11:29:59.777Z,38.6
2022-10-01T11:31:01.701Z,38.7
2022-10-01T11:32:03.828Z,38.6
2022-10-01T11:33:05.554Z,38.7
2022-10-01T11:34:07.089Z,38.7
2022-10-01T11:35:08.621Z,38.7
2022-10-01T11:36:10.168Z,38.6
2022-10-01T11:37:11.708Z,38.6
2022-10-01T11:38:13.574Z,38.6
2022-10-01T11:39:15.128Z,38.7
2022-10-01T11:40:16.764Z,38.7
2022-10-01T11:41:18.372Z,38.7
2022-10-01T11:42:19.975Z,38.7
2022-10-01T11:43:21.503Z,38.7
2022-10-01T11:44:23.146Z,38.7
2022-10-01T11:45:24.887Z,38.7
2022-10-01T11:46:26.804Z,38.7
2022-10-01T11:47:28.714Z,38.7
2022-10-01T11:48:30.447Z,38.8
2022-10-01T11:49:32.019Z,38.8
2022-10-01T11:50:39.564Z,38.8
2022-10-01T11:51:41.313Z,38.9
2022-10-01T11:52:42.831Z,38.9
2022-10-01T11:53:44.611Z,38.9
2022-10-01T11:54:46.159Z,38.9
2022-10-01T11:55:47.689Z,38.9
2022-10-01T11:56:49.333Z,38.9
2022-10-01T11:57:50.870Z,38.9
2022-10-01T11:58:52.523Z,38.8
2022-10-01T11:59:54.278Z,38.9
2022-10-01T12:00:55.911Z,38.9
2022-10-01T12:01:57.625Z,38.9
2022-10-01T12:02:59.537Z,39
2022-10-01T12:04:01.262Z,38.9
2022-10-01T12:05:03.211Z,38.9
2022-10-01T12:06:05.105Z,39
2022-10-01T12:07:06.679Z,38.9
2022-10-01T12:08:08.209Z,39
2022-10-01T12:09:10.014Z,39
2022-10-01T12:10:11.752Z,39
2022-10-01T12:11:13.388Z,39
2022-10-01T12:12:15.081Z,39
2022-10-01T12:13:16.684Z,39
2022-10-01T12:14:18.301Z,39
2022-10-01T12:15:22.499Z,39
2022-10-01T12:16:24.160Z,39
2022-10-01T12:17:26.239Z,39
2022-10-01T12:18:28.006Z,39.1
2022-10-01T12:19:29.627Z,39.1
2022-10-01T12:20:31.270Z,39.1
2022-10-01T12:21:32.915Z,39
2022-10-01T12:22:34.486Z,39.1
2022-10-01T12:23:36.143Z,39
2022-10-01T12:24:37.954Z,39
2022-10-01T12:25:39.596Z,39
2022-10-01T12:26:41.189Z,39.1
2022-10-01T12:27:42.869Z,39.1
2022-10-01T12:28:52.895Z,39.1
2022-10-01T12:30:02.265Z,39.1
2022-10-01T12:31:04.024Z,39.1
2022-10-01T12:32:05.965Z,39.1
2022-10-01T12:33:07.601Z,39.1
2022-10-01T12:34:09.175Z,39.1
2022-10-01T12:35:11.001Z,39.1
2022-10-01T12:36:12.625Z,39.1
2022-10-01T12:37:14.291Z,39.1
2022-10-01T12:38:15.869Z,39.1
2022-10-01T12:39:17.513Z,39.1
2022-10-01T12:40:19.333Z,39.1
2022-10-01T12:41:21.069Z,39
2022-10-01T12:42:22.816Z,39
2022-10-01T12:43:24.339Z,39.1
2022-10-01T12:44:26.160Z,39.1
2022-10-01T12:45:27.744Z,39.1
2022-10-01T12:46:29.641Z,39.1
2022-10-01T12:47:31.658Z,39.1
2022-10-01T12:48:33.239Z,39.1
2022-10-01T12:49:37.818Z,39.1
2022-10-01T12:50:39.570Z,39.1
2022-10-01T12:51:41.110Z,39.1
2022-10-01T12:52:42.955Z,39.1
2022-10-01T12:53:44.469Z,39.1
2022-10-01T12:54:46.175Z,39.2
2022-10-01T12:55:48.008Z,39.1
2022-10-01T12:56:49.636Z,39.2
2022-10-01T12:57:51.184Z,39.1
2022-10-01T12:58:52.830Z,39.1
2022-10-01T12:59:54.372Z,39.1
2022-10-01T13:00:56.177Z,39.1
2022-10-01T13:01:58.242Z,39.1
2022-10-01T13:03:00.241Z,39.1
2022-10-01T13:04:03.927Z,39.1
2022-10-01T13:05:05.632Z,39.1
2022-10-01T13:06:07.205Z,39.1
2022-10-01T13:07:09.076Z,39.1
2022-10-01T13:08:10.678Z,39.2
2022-10-01T13:09:12.372Z,39.1
2022-10-01T13:10:13.901Z,39.1
2022-10-01T13:11:15.646Z,39.1
2022-10-01T13:12:17.294Z,39.1
2022-10-01T13:13:18.939Z,39.2
2022-10-01T13:14:20.585Z,39.1
2022-10-01T13:15:22.189Z,39.1
2022-10-01T13:16:24.004Z,39.1
2022-10-01T13:17:25.965Z,39.1
2022-10-01T13:18:27.680Z,39.1
2022-10-01T13:19:31.880Z,39.1
2022-10-01T13:20:33.447Z,39.1
2022-10-01T13:21:35.136Z,39.1
2022-10-01T13:22:36.818Z,39.1
2022-10-01T13:23:38.361Z,39.1
2022-10-01T13:24:40.216Z,39.1
2022-10-01T13:25:41.850Z,39.1
2022-10-01T13:26:43.597Z,39.1
2022-10-01T13:27:45.476Z,39
2022-10-01T13:28:47.340Z,39
2022-10-01T13:29:48.910Z,39
2022-10-01T13:30:50.717Z,39
2022-10-01T13:31:52.586Z,39
2022-10-01T13:32:54.128Z,39
2022-10-01T13:33:55.931Z,39
2022-10-01T13:34:57.679Z,39
2022-10-01T13:35:59.356Z,39.1
2022-10-01T13:37:01.079Z,39.1
2022-10-01T13:38:02.634Z,39.1
2022-10-01T13:39:04.222Z,39.1
2022-10-01T13:40:05.906Z,39.1
2022-10-01T13:41:07.550Z,39.1
2022-10-01T13:42:09.220Z,39.1
2022-10-01T13:43:10.726Z,39.1
2022-10-01T13:44:12.256Z,39.1
2022-10-01T13:45:17.003Z,39.2
2022-10-01T13:46:18.789Z,39.2
2022-10-01T13:47:20.803Z,39.2